sensor_id;sensor_type;location;lat;lon;timestamp;temperature;humidity
4647;DHT22;2336;47.822;7.564;2023-05-10T00:01:47;13.80;99.90
4647;DHT22;2336;47.822;7.564;2023-05-10T00:04:14;13.80;99.90
4647;DHT22;2336;47.822;7.564;2023-05-10T00:06:40;13.80;99.90
4647;DHT22;2336;47.822;7.564;2023-05-10T00:09:07;13.80;99.90
4647;DHT22;2336;47.822;7.564;2023-05-10T00:11:34;13.80;99.90
4647;DHT22;2336;47.822;7.564;2023-05-10T00:14:02;13.80;99.90
4647;DHT22;2336;47.822;7.564;2023-05-10T00:16:29;13.70;99.90
4647;DHT22;2336;47.822;7.564;2023-05-10T00:18:55;13.80;99.90
4647;DHT22;2336;47.822;7.564;2023-05-10T00:21:22;13.80;99.90
4647;DHT22;2336;47.822;7.564;2023-05-10T00:23:49;13.80;99.90
4647;DHT22;2336;47.822;7.564;2023-05-10T00:26:15;13.80;99.90
4647;DHT22;2336;47.822;7.564;2023-05-10T00:28:43;13.80;99.90
4647;DHT22;2336;47.822;7.564;2023-05-10T00:31:11;13.80;99.90
4647;DHT22;2336;47.822;7.564;2023-05-10T00:33:37;13.80;99.90
4647;DHT22;2336;47.822;7.564;2023-05-10T00:36:05;13.70;99.90
4647;DHT22;2336;47.822;7.564;2023-05-10T00:38:33;13.70;99.90
4647;DHT22;2336;47.822;7.564;2023-05-10T00:40:59;13.70;99.90
4647;DHT22;2336;47.822;7.564;2023-05-10T00:43:26;13.70;99.90
4647;DHT22;2336;47.822;7.564;2023-05-10T00:45:53;13.70;99.90
4647;DHT22;2336;47.822;7.564;2023-05-10T00:48:22;13.70;99.90
4647;DHT22;2336;47.822;7.564;2023-05-10T00:50:48;13.70;99.90
4647;DHT22;2336;47.822;7.564;2023-05-10T00:53:15;13.70;99.90
4647;DHT22;2336;47.822;7.564;2023-05-10T00:55:43;13.70;99.90
4647;DHT22;2336;47.822;7.564;2023-05-10T00:58:10;13.70;99.90
4647;DHT22;2336;47.822;7.564;2023-05-10T01:00:38;13.70;99.90
4647;DHT22;2336;47.822;7.564;2023-05-10T01:03:08;13.60;99.90
4647;DHT22;2336;47.822;7.564;2023-05-10T01:05:36;13.60;99.90
4647;DHT22;2336;47.822;7.564;2023-05-10T01:08:03;13.60;99.90
4647;DHT22;2336;47.822;7.564;2023-05-10T01:10:30;13.60;99.90
4647;DHT22;2336;47.822;7.564;2023-05-10T01:12:57;13.60;99.90
4647;DHT22;2336;47.822;7.564;2023-05-10T01:15:25;13.70;99.90
4647;DHT22;2336;47.822;7.564;2023-05-10T01:17:52;13.70;99.90
4647;DHT22;2336;47.822;7.564;2023-05-10T01:20:20;13.60;99.90
4647;DHT22;2336;47.822;7.564;2023-05-10T01:23:04;13.70;99.90
4647;DHT22;2336;47.822;7.564;2023-05-10T01:26:04;13.70;99.90
4647;DHT22;2336;47.822;7.564;2023-05-10T01:28:44;13.70;99.90
4647;DHT22;2336;47.822;7.564;2023-05-10T01:31:27;13.60;99.90
4647;DHT22;2336;47.822;7.564;2023-05-10T01:34:01;13.60;99.90
4647;DHT22;2336;47.822;7.564;2023-05-10T01:36:31;13.70;99.90
4647;DHT22;2336;47.822;7.564;2023-05-10T01:39:02;13.60;99.90
4647;DHT22;2336;47.822;7.564;2023-05-10T01:41:39;13.60;99.90
4647;DHT22;2336;47.822;7.564;2023-05-10T01:44:13;13.60;99.90
4647;DHT22;2336;47.822;7.564;2023-05-10T01:46:43;13.60;99.90
4647;DHT22;2336;47.822;7.564;2023-05-10T01:49:25;13.60;99.90
4647;DHT22;2336;47.822;7.564;2023-05-10T01:51:54;13.60;99.90
4647;DHT22;2336;47.822;7.564;2023-05-10T01:54:24;13.70;99.90
4647;DHT22;2336;47.822;7.564;2023-05-10T01:56:55;13.60;99.90
4647;DHT22;2336;47.822;7.564;2023-05-10T01:59:29;13.60;99.90
4647;DHT22;2336;47.822;7.564;2023-05-10T02:01:58;13.60;99.90
4647;DHT22;2336;47.822;7.564;2023-05-10T02:04:28;13.60;99.90
4647;DHT22;2336;47.822;7.564;2023-05-10T02:06:55;13.60;99.90
4647;DHT22;2336;47.822;7.564;2023-05-10T02:09:24;13.50;99.90
4647;DHT22;2336;47.822;7.564;2023-05-10T02:11:52;13.50;99.90
4647;DHT22;2336;47.822;7.564;2023-05-10T02:14:21;13.50;99.90
4647;DHT22;2336;47.822;7.564;2023-05-10T02:16:50;13.50;99.90
4647;DHT22;2336;47.822;7.564;2023-05-10T02:19:20;13.50;99.90
4647;DHT22;2336;47.822;7.564;2023-05-10T02:21:50;13.50;99.90
4647;DHT22;2336;47.822;7.564;2023-05-10T02:24:19;13.50;99.90
4647;DHT22;2336;47.822;7.564;2023-05-10T02:26:47;13.50;99.90
4647;DHT22;2336;47.822;7.564;2023-05-10T02:29:15;13.50;99.90
4647;DHT22;2336;47.822;7.564;2023-05-10T02:31:43;13.50;99.90
4647;DHT22;2336;47.822;7.564;2023-05-10T02:34:11;13.50;99.90
4647;DHT22;2336;47.822;7.564;2023-05-10T02:36:38;13.50;99.90
4647;DHT22;2336;47.822;7.564;2023-05-10T02:39:07;13.50;99.90
4647;DHT22;2336;47.822;7.564;2023-05-10T02:41:38;13.50;99.90
4647;DHT22;2336;47.822;7.564;2023-05-10T02:44:06;13.50;99.90
4647;DHT22;2336;47.822;7.564;2023-05-10T02:46:34;13.50;99.90
4647;DHT22;2336;47.822;7.564;2023-05-10T02:49:03;13.60;99.90
4647;DHT22;2336;47.822;7.564;2023-05-10T02:51:32;13.50;99.90
4647;DHT22;2336;47.822;7.564;2023-05-10T02:54:08;13.50;99.90
4647;DHT22;2336;47.822;7.564;2023-05-10T02:56:40;13.50;99.90
4647;DHT22;2336;47.822;7.564;2023-05-10T02:59:08;13.50;99.90
4647;DHT22;2336;47.822;7.564;2023-05-10T03:01:36;13.50;99.90
4647;DHT22;2336;47.822;7.564;2023-05-10T03:04:03;13.40;99.90
4647;DHT22;2336;47.822;7.564;2023-05-10T03:06:30;13.50;99.90
4647;DHT22;2336;47.822;7.564;2023-05-10T03:08:57;13.40;99.90
4647;DHT22;2336;47.822;7.564;2023-05-10T03:11:36;13.40;99.90
4647;DHT22;2336;47.822;7.564;2023-05-10T03:14:13;13.40;99.90
4647;DHT22;2336;47.822;7.564;2023-05-10T03:16:47;13.40;99.90
4647;DHT22;2336;47.822;7.564;2023-05-10T03:19:20;13.40;99.90
4647;DHT22;2336;47.822;7.564;2023-05-10T03:21:51;13.40;99.90
4647;DHT22;2336;47.822;7.564;2023-05-10T03:24:21;13.40;99.90
4647;DHT22;2336;47.822;7.564;2023-05-10T03:26:49;13.40;99.90
4647;DHT22;2336;47.822;7.564;2023-05-10T03:29:20;13.40;99.90
4647;DHT22;2336;47.822;7.564;2023-05-10T03:31:47;13.40;99.90
4647;DHT22;2336;47.822;7.564;2023-05-10T03:34:14;13.30;99.90
4647;DHT22;2336;47.822;7.564;2023-05-10T03:36:40;13.30;99.90
4647;DHT22;2336;47.822;7.564;2023-05-10T03:39:07;13.30;99.90
4647;DHT22;2336;47.822;7.564;2023-05-10T03:41:34;13.30;99.90
4647;DHT22;2336;47.822;7.564;2023-05-10T03:44:01;13.20;99.90
4647;DHT22;2336;47.822;7.564;2023-05-10T03:46:29;13.20;99.90
4647;DHT22;2336;47.822;7.564;2023-05-10T03:48:55;13.20;99.90
4647;DHT22;2336;47.822;7.564;2023-05-10T03:51:22;13.20;99.90
4647;DHT22;2336;47.822;7.564;2023-05-10T03:53:50;13.20;99.90
4647;DHT22;2336;47.822;7.564;2023-05-10T03:56:17;13.20;99.90
4647;DHT22;2336;47.822;7.564;2023-05-10T03:58:44;13.20;99.90
4647;DHT22;2336;47.822;7.564;2023-05-10T04:01:10;13.20;99.90
4647;DHT22;2336;47.822;7.564;2023-05-10T04:03:38;13.20;99.90
4647;DHT22;2336;47.822;7.564;2023-05-10T04:06:06;13.20;99.90
4647;DHT22;2336;47.822;7.564;2023-05-10T04:08:34;13.20;99.90
4647;DHT22;2336;47.822;7.564;2023-05-10T04:11:07;13.10;99.90
4647;DHT22;2336;47.822;7.564;2023-05-10T04:13:34;13.10;99.90
4647;DHT22;2336;47.822;7.564;2023-05-10T04:16:01;13.00;99.90
4647;DHT22;2336;47.822;7.564;2023-05-10T04:18:27;12.90;99.90
4647;DHT22;2336;47.822;7.564;2023-05-10T04:20:55;12.90;99.90
4647;DHT22;2336;47.822;7.564;2023-05-10T04:23:22;12.90;99.90
4647;DHT22;2336;47.822;7.564;2023-05-10T04:25:49;12.90;99.90
4647;DHT22;2336;47.822;7.564;2023-05-10T04:28:16;12.80;99.90
4647;DHT22;2336;47.822;7.564;2023-05-10T04:30:42;12.90;99.90
4647;DHT22;2336;47.822;7.564;2023-05-10T04:33:09;12.80;99.90
4647;DHT22;2336;47.822;7.564;2023-05-10T04:35:36;12.80;99.90
4647;DHT22;2336;47.822;7.564;2023-05-10T04:38:04;12.80;99.90
4647;DHT22;2336;47.822;7.564;2023-05-10T04:40:31;12.80;99.90
4647;DHT22;2336;47.822;7.564;2023-05-10T04:42:57;12.80;99.90
4647;DHT22;2336;47.822;7.564;2023-05-10T04:45:24;12.80;99.90
4647;DHT22;2336;47.822;7.564;2023-05-10T04:47:51;12.80;99.90
4647;DHT22;2336;47.822;7.564;2023-05-10T04:50:17;12.80;99.90
4647;DHT22;2336;47.822;7.564;2023-05-10T04:52:44;12.80;99.90
4647;DHT22;2336;47.822;7.564;2023-05-10T04:55:12;12.80;99.90
4647;DHT22;2336;47.822;7.564;2023-05-10T04:57:39;12.80;99.90
4647;DHT22;2336;47.822;7.564;2023-05-10T05:00:07;12.80;99.90
4647;DHT22;2336;47.822;7.564;2023-05-10T05:02:34;12.90;99.90
4647;DHT22;2336;47.822;7.564;2023-05-10T05:05:01;12.90;99.90
4647;DHT22;2336;47.822;7.564;2023-05-10T05:07:28;12.90;99.90
4647;DHT22;2336;47.822;7.564;2023-05-10T05:09:56;12.90;99.90
4647;DHT22;2336;47.822;7.564;2023-05-10T05:12:24;13.00;99.90
4647;DHT22;2336;47.822;7.564;2023-05-10T05:14:50;12.90;99.90
4647;DHT22;2336;47.822;7.564;2023-05-10T05:17:17;12.90;99.90
4647;DHT22;2336;47.822;7.564;2023-05-10T05:19:44;12.90;99.90
4647;DHT22;2336;47.822;7.564;2023-05-10T05:22:10;13.00;99.90
4647;DHT22;2336;47.822;7.564;2023-05-10T05:24:37;13.00;99.90
4647;DHT22;2336;47.822;7.564;2023-05-10T05:27:04;13.00;99.90
4647;DHT22;2336;47.822;7.564;2023-05-10T05:29:32;12.90;99.90
4647;DHT22;2336;47.822;7.564;2023-05-10T05:31:59;12.90;99.90
4647;DHT22;2336;47.822;7.564;2023-05-10T05:34:25;12.90;99.90
4647;DHT22;2336;47.822;7.564;2023-05-10T05:36:52;13.00;99.90
4647;DHT22;2336;47.822;7.564;2023-05-10T05:39:19;12.90;99.90
4647;DHT22;2336;47.822;7.564;2023-05-10T05:41:46;13.00;99.90
4647;DHT22;2336;47.822;7.564;2023-05-10T05:44:12;13.00;99.90
4647;DHT22;2336;47.822;7.564;2023-05-10T05:46:40;13.00;99.90
4647;DHT22;2336;47.822;7.564;2023-05-10T05:49:07;13.00;99.90
4647;DHT22;2336;47.822;7.564;2023-05-10T05:51:34;13.00;99.90
4647;DHT22;2336;47.822;7.564;2023-05-10T05:54:01;13.10;99.90
4647;DHT22;2336;47.822;7.564;2023-05-10T05:56:29;13.10;99.90
4647;DHT22;2336;47.822;7.564;2023-05-10T05:58:56;13.10;99.90
4647;DHT22;2336;47.822;7.564;2023-05-10T06:01:22;13.20;99.90
4647;DHT22;2336;47.822;7.564;2023-05-10T06:03:51;13.20;99.90
4647;DHT22;2336;47.822;7.564;2023-05-10T06:06:17;13.30;99.90
4647;DHT22;2336;47.822;7.564;2023-05-10T06:08:44;13.30;99.90
4647;DHT22;2336;47.822;7.564;2023-05-10T06:11:10;13.30;99.90
4647;DHT22;2336;47.822;7.564;2023-05-10T06:13:37;13.30;99.90
4647;DHT22;2336;47.822;7.564;2023-05-10T06:16:04;13.30;99.90
4647;DHT22;2336;47.822;7.564;2023-05-10T06:18:31;13.30;99.90
4647;DHT22;2336;47.822;7.564;2023-05-10T06:20:59;13.30;99.90
4647;DHT22;2336;47.822;7.564;2023-05-10T06:23:26;13.30;99.90
4647;DHT22;2336;47.822;7.564;2023-05-10T06:25:53;13.30;99.90
4647;DHT22;2336;47.822;7.564;2023-05-10T06:28:19;13.40;99.90
4647;DHT22;2336;47.822;7.564;2023-05-10T06:30:46;13.30;99.90
4647;DHT22;2336;47.822;7.564;2023-05-10T06:33:13;13.30;99.90
4647;DHT22;2336;47.822;7.564;2023-05-10T06:35:41;13.30;99.90
4647;DHT22;2336;47.822;7.564;2023-05-10T06:38:09;13.30;99.90
4647;DHT22;2336;47.822;7.564;2023-05-10T06:40:36;13.30;99.90
4647;DHT22;2336;47.822;7.564;2023-05-10T06:43:03;13.30;99.90
4647;DHT22;2336;47.822;7.564;2023-05-10T06:45:30;13.30;99.90
4647;DHT22;2336;47.822;7.564;2023-05-10T06:47:56;13.30;99.90
4647;DHT22;2336;47.822;7.564;2023-05-10T06:50:23;13.30;99.90
4647;DHT22;2336;47.822;7.564;2023-05-10T06:52:50;13.30;99.90
4647;DHT22;2336;47.822;7.564;2023-05-10T06:55:18;13.40;99.90
4647;DHT22;2336;47.822;7.564;2023-05-10T06:57:45;13.50;99.90
4647;DHT22;2336;47.822;7.564;2023-05-10T07:00:13;13.50;99.90
4647;DHT22;2336;47.822;7.564;2023-05-10T07:02:40;13.60;99.90
4647;DHT22;2336;47.822;7.564;2023-05-10T07:05:08;13.70;99.90
4647;DHT22;2336;47.822;7.564;2023-05-10T07:07:35;13.80;99.90
4647;DHT22;2336;47.822;7.564;2023-05-10T07:10:02;13.90;99.90
4647;DHT22;2336;47.822;7.564;2023-05-10T07:12:30;13.90;99.90
4647;DHT22;2336;47.822;7.564;2023-05-10T07:14:57;13.90;99.90
4647;DHT22;2336;47.822;7.564;2023-05-10T07:17:23;13.90;99.90
4647;DHT22;2336;47.822;7.564;2023-05-10T07:19:51;14.00;99.90
4647;DHT22;2336;47.822;7.564;2023-05-10T07:22:18;14.00;99.90
4647;DHT22;2336;47.822;7.564;2023-05-10T07:24:45;14.00;99.90
4647;DHT22;2336;47.822;7.564;2023-05-10T07:27:12;14.00;99.90
4647;DHT22;2336;47.822;7.564;2023-05-10T07:29:40;14.00;99.90
4647;DHT22;2336;47.822;7.564;2023-05-10T07:32:07;14.10;99.90
4647;DHT22;2336;47.822;7.564;2023-05-10T07:34:34;14.10;99.90
4647;DHT22;2336;47.822;7.564;2023-05-10T07:37:01;14.00;99.90
4647;DHT22;2336;47.822;7.564;2023-05-10T07:39:27;14.10;99.90
4647;DHT22;2336;47.822;7.564;2023-05-10T07:41:55;14.10;99.90
4647;DHT22;2336;47.822;7.564;2023-05-10T07:44:22;14.10;99.90
4647;DHT22;2336;47.822;7.564;2023-05-10T07:46:50;14.30;99.90
4647;DHT22;2336;47.822;7.564;2023-05-10T07:49:17;14.30;99.90
4647;DHT22;2336;47.822;7.564;2023-05-10T07:51:44;14.30;99.90
4647;DHT22;2336;47.822;7.564;2023-05-10T07:54:10;14.30;99.90
4647;DHT22;2336;47.822;7.564;2023-05-10T07:56:38;14.30;99.90
4647;DHT22;2336;47.822;7.564;2023-05-10T07:59:05;14.40;99.90
4647;DHT22;2336;47.822;7.564;2023-05-10T08:01:33;14.50;99.90
4647;DHT22;2336;47.822;7.564;2023-05-10T08:04:01;14.50;99.90
4647;DHT22;2336;47.822;7.564;2023-05-10T08:06:28;14.60;99.90
4647;DHT22;2336;47.822;7.564;2023-05-10T08:08:55;14.60;99.90
4647;DHT22;2336;47.822;7.564;2023-05-10T08:11:22;14.60;99.90
4647;DHT22;2336;47.822;7.564;2023-05-10T08:13:50;14.60;99.90
4647;DHT22;2336;47.822;7.564;2023-05-10T08:16:17;14.70;99.90
4647;DHT22;2336;47.822;7.564;2023-05-10T08:18:45;14.80;99.90
4647;DHT22;2336;47.822;7.564;2023-05-10T08:21:13;14.90;99.90
4647;DHT22;2336;47.822;7.564;2023-05-10T08:23:40;14.90;99.90
4647;DHT22;2336;47.822;7.564;2023-05-10T08:26:08;15.00;99.90
4647;DHT22;2336;47.822;7.564;2023-05-10T08:28:35;15.10;99.90
4647;DHT22;2336;47.822;7.564;2023-05-10T08:31:02;15.30;99.90
4647;DHT22;2336;47.822;7.564;2023-05-10T08:33:29;15.40;99.90
4647;DHT22;2336;47.822;7.564;2023-05-10T08:35:56;15.50;99.90
4647;DHT22;2336;47.822;7.564;2023-05-10T08:38:24;15.60;99.90
4647;DHT22;2336;47.822;7.564;2023-05-10T08:40:54;15.70;99.90
4647;DHT22;2336;47.822;7.564;2023-05-10T08:43:26;15.70;99.90
4647;DHT22;2336;47.822;7.564;2023-05-10T08:45:54;15.80;99.90
4647;DHT22;2336;47.822;7.564;2023-05-10T08:48:23;15.90;99.90
4647;DHT22;2336;47.822;7.564;2023-05-10T08:50:52;16.00;99.90
4647;DHT22;2336;47.822;7.564;2023-05-10T08:53:19;16.00;99.90
4647;DHT22;2336;47.822;7.564;2023-05-10T08:55:47;16.10;99.90
4647;DHT22;2336;47.822;7.564;2023-05-10T08:58:14;16.00;99.90
4647;DHT22;2336;47.822;7.564;2023-05-10T09:00:41;16.00;99.90
4647;DHT22;2336;47.822;7.564;2023-05-10T09:03:09;16.00;99.90
4647;DHT22;2336;47.822;7.564;2023-05-10T09:05:36;15.90;99.90
4647;DHT22;2336;47.822;7.564;2023-05-10T09:08:03;15.80;99.90
4647;DHT22;2336;47.822;7.564;2023-05-10T09:10:31;15.80;99.90
4647;DHT22;2336;47.822;7.564;2023-05-10T09:12:59;15.80;99.90
4647;DHT22;2336;47.822;7.564;2023-05-10T09:15:26;15.80;99.90
4647;DHT22;2336;47.822;7.564;2023-05-10T09:17:54;15.80;99.90
4647;DHT22;2336;47.822;7.564;2023-05-10T09:20:21;15.70;99.90
4647;DHT22;2336;47.822;7.564;2023-05-10T09:22:48;15.70;99.90
4647;DHT22;2336;47.822;7.564;2023-05-10T09:25:16;15.80;99.90
4647;DHT22;2336;47.822;7.564;2023-05-10T09:27:45;15.80;99.90
4647;DHT22;2336;47.822;7.564;2023-05-10T09:30:17;15.90;99.90
4647;DHT22;2336;47.822;7.564;2023-05-10T09:32:50;15.80;99.90
4647;DHT22;2336;47.822;7.564;2023-05-10T09:35:18;15.80;99.90
4647;DHT22;2336;47.822;7.564;2023-05-10T09:37:46;15.90;99.90
4647;DHT22;2336;47.822;7.564;2023-05-10T09:40:15;16.00;99.90
4647;DHT22;2336;47.822;7.564;2023-05-10T09:42:50;16.10;99.90
4647;DHT22;2336;47.822;7.564;2023-05-10T09:45:18;16.20;99.90
4647;DHT22;2336;47.822;7.564;2023-05-10T09:47:45;16.40;99.90
4647;DHT22;2336;47.822;7.564;2023-05-10T09:50:12;16.40;99.90
4647;DHT22;2336;47.822;7.564;2023-05-10T09:52:47;16.40;99.90
4647;DHT22;2336;47.822;7.564;2023-05-10T09:55:14;16.30;99.90
4647;DHT22;2336;47.822;7.564;2023-05-10T09:57:41;16.20;99.90
4647;DHT22;2336;47.822;7.564;2023-05-10T10:00:08;16.30;99.90
4647;DHT22;2336;47.822;7.564;2023-05-10T10:02:38;16.30;99.90
4647;DHT22;2336;47.822;7.564;2023-05-10T10:05:06;16.50;99.90
4647;DHT22;2336;47.822;7.564;2023-05-10T10:07:34;16.50;99.90
4647;DHT22;2336;47.822;7.564;2023-05-10T10:10:01;16.60;99.90
4647;DHT22;2336;47.822;7.564;2023-05-10T10:12:27;16.70;99.90
4647;DHT22;2336;47.822;7.564;2023-05-10T10:14:55;16.80;99.90
4647;DHT22;2336;47.822;7.564;2023-05-10T10:17:23;16.90;99.90
4647;DHT22;2336;47.822;7.564;2023-05-10T10:19:52;17.00;99.90
4647;DHT22;2336;47.822;7.564;2023-05-10T10:22:19;17.10;99.90
4647;DHT22;2336;47.822;7.564;2023-05-10T10:24:46;17.30;99.90
4647;DHT22;2336;47.822;7.564;2023-05-10T10:27:21;17.40;99.90
4647;DHT22;2336;47.822;7.564;2023-05-10T10:29:58;17.50;99.90
4647;DHT22;2336;47.822;7.564;2023-05-10T10:32:30;17.70;99.90
4647;DHT22;2336;47.822;7.564;2023-05-10T10:35:01;17.70;99.90
4647;DHT22;2336;47.822;7.564;2023-05-10T10:37:42;17.80;99.90
4647;DHT22;2336;47.822;7.564;2023-05-10T10:40:26;17.90;99.90
4647;DHT22;2336;47.822;7.564;2023-05-10T10:42:53;17.90;99.90
4647;DHT22;2336;47.822;7.564;2023-05-10T10:45:21;17.70;99.90
4647;DHT22;2336;47.822;7.564;2023-05-10T10:47:48;17.60;99.90
4647;DHT22;2336;47.822;7.564;2023-05-10T10:50:16;17.50;99.90
4647;DHT22;2336;47.822;7.564;2023-05-10T10:52:43;17.40;99.90
4647;DHT22;2336;47.822;7.564;2023-05-10T10:55:11;17.40;99.90
4647;DHT22;2336;47.822;7.564;2023-05-10T10:57:46;17.30;99.90
4647;DHT22;2336;47.822;7.564;2023-05-10T11:00:30;17.30;99.90
4647;DHT22;2336;47.822;7.564;2023-05-10T11:02:59;17.40;99.90
4647;DHT22;2336;47.822;7.564;2023-05-10T11:05:35;17.50;99.90
4647;DHT22;2336;47.822;7.564;2023-05-10T11:08:08;17.50;99.90
4647;DHT22;2336;47.822;7.564;2023-05-10T11:10:35;17.40;99.90
4647;DHT22;2336;47.822;7.564;2023-05-10T11:13:03;17.10;99.90
4647;DHT22;2336;47.822;7.564;2023-05-10T11:15:30;16.90;99.90
4647;DHT22;2336;47.822;7.564;2023-05-10T11:17:57;17.00;99.90
4647;DHT22;2336;47.822;7.564;2023-05-10T11:20:27;17.30;99.90
4647;DHT22;2336;47.822;7.564;2023-05-10T11:23:11;17.80;99.90
4647;DHT22;2336;47.822;7.564;2023-05-10T11:25:42;18.00;99.90
4647;DHT22;2336;47.822;7.564;2023-05-10T11:28:10;17.90;99.90
4647;DHT22;2336;47.822;7.564;2023-05-10T11:30:38;18.10;99.10
4647;DHT22;2336;47.822;7.564;2023-05-10T11:33:06;18.30;99.60
4647;DHT22;2336;47.822;7.564;2023-05-10T11:35:37;18.60;99.70
4647;DHT22;2336;47.822;7.564;2023-05-10T11:38:07;18.70;99.30
4647;DHT22;2336;47.822;7.564;2023-05-10T11:40:34;18.70;99.90
4647;DHT22;2336;47.822;7.564;2023-05-10T11:43:01;18.60;99.80
4647;DHT22;2336;47.822;7.564;2023-05-10T11:45:28;18.80;99.90
4647;DHT22;2336;47.822;7.564;2023-05-10T11:47:57;18.70;99.80
4647;DHT22;2336;47.822;7.564;2023-05-10T11:50:24;18.70;99.30
4647;DHT22;2336;47.822;7.564;2023-05-10T11:52:51;18.70;99.00
4647;DHT22;2336;47.822;7.564;2023-05-10T11:55:20;18.70;99.90
4647;DHT22;2336;47.822;7.564;2023-05-10T11:57:47;18.60;99.90
4647;DHT22;2336;47.822;7.564;2023-05-10T12:00:14;18.30;99.90
4647;DHT22;2336;47.822;7.564;2023-05-10T12:02:41;17.70;99.90
4647;DHT22;2336;47.822;7.564;2023-05-10T12:05:09;17.10;99.90
4647;DHT22;2336;47.822;7.564;2023-05-10T12:07:36;16.60;99.90
4647;DHT22;2336;47.822;7.564;2023-05-10T12:10:08;16.20;99.90
4647;DHT22;2336;47.822;7.564;2023-05-10T12:12:40;16.00;99.90
4647;DHT22;2336;47.822;7.564;2023-05-10T12:15:12;16.10;99.90
4647;DHT22;2336;47.822;7.564;2023-05-10T12:17:44;16.10;99.90
4647;DHT22;2336;47.822;7.564;2023-05-10T12:20:17;15.90;99.90
4647;DHT22;2336;47.822;7.564;2023-05-10T12:22:46;15.90;99.90
4647;DHT22;2336;47.822;7.564;2023-05-10T12:25:13;15.90;99.90
4647;DHT22;2336;47.822;7.564;2023-05-10T12:27:46;16.00;99.90
4647;DHT22;2336;47.822;7.564;2023-05-10T12:30:19;16.00;99.90
4647;DHT22;2336;47.822;7.564;2023-05-10T12:32:46;16.20;99.90
4647;DHT22;2336;47.822;7.564;2023-05-10T12:35:13;16.50;99.90
4647;DHT22;2336;47.822;7.564;2023-05-10T12:37:41;17.00;99.90
4647;DHT22;2336;47.822;7.564;2023-05-10T12:40:09;17.70;99.90
4647;DHT22;2336;47.822;7.564;2023-05-10T12:42:38;18.20;99.90
4647;DHT22;2336;47.822;7.564;2023-05-10T12:45:08;18.50;99.90
4647;DHT22;2336;47.822;7.564;2023-05-10T12:47:35;18.70;99.90
4647;DHT22;2336;47.822;7.564;2023-05-10T12:50:02;18.90;99.90
4647;DHT22;2336;47.822;7.564;2023-05-10T12:52:29;18.90;98.90
4647;DHT22;2336;47.822;7.564;2023-05-10T12:54:57;19.00;99.40
4647;DHT22;2336;47.822;7.564;2023-05-10T12:57:24;19.00;99.60
4647;DHT22;2336;47.822;7.564;2023-05-10T12:59:51;19.20;99.70
4647;DHT22;2336;47.822;7.564;2023-05-10T13:02:19;19.00;98.40
4647;DHT22;2336;47.822;7.564;2023-05-10T13:04:46;19.30;99.90
4647;DHT22;2336;47.822;7.564;2023-05-10T13:07:13;19.20;98.80
4647;DHT22;2336;47.822;7.564;2023-05-10T13:09:40;19.00;99.20
4647;DHT22;2336;47.822;7.564;2023-05-10T13:12:07;18.70;99.90
4647;DHT22;2336;47.822;7.564;2023-05-10T13:14:34;18.40;99.90
4647;DHT22;2336;47.822;7.564;2023-05-10T13:17:00;18.10;99.90
4647;DHT22;2336;47.822;7.564;2023-05-10T13:19:29;17.50;99.90
4647;DHT22;2336;47.822;7.564;2023-05-10T13:21:55;17.20;99.90
4647;DHT22;2336;47.822;7.564;2023-05-10T13:24:22;17.20;99.90
4647;DHT22;2336;47.822;7.564;2023-05-10T13:26:49;16.90;99.90
4647;DHT22;2336;47.822;7.564;2023-05-10T13:29:15;16.80;99.90
4647;DHT22;2336;47.822;7.564;2023-05-10T13:31:43;17.20;99.90
4647;DHT22;2336;47.822;7.564;2023-05-10T13:34:10;17.30;99.90
4647;DHT22;2336;47.822;7.564;2023-05-10T13:36:38;17.40;99.90
4647;DHT22;2336;47.822;7.564;2023-05-10T13:39:05;17.30;99.90
4647;DHT22;2336;47.822;7.564;2023-05-10T13:41:32;17.30;99.90
4647;DHT22;2336;47.822;7.564;2023-05-10T13:43:59;17.30;99.90
4647;DHT22;2336;47.822;7.564;2023-05-10T13:46:26;17.30;99.90
4647;DHT22;2336;47.822;7.564;2023-05-10T13:48:52;17.30;99.90
4647;DHT22;2336;47.822;7.564;2023-05-10T13:51:19;17.40;99.90
4647;DHT22;2336;47.822;7.564;2023-05-10T13:53:47;17.40;99.90
4647;DHT22;2336;47.822;7.564;2023-05-10T13:56:14;17.50;99.90
4647;DHT22;2336;47.822;7.564;2023-05-10T13:58:41;17.60;99.90
4647;DHT22;2336;47.822;7.564;2023-05-10T14:01:07;17.80;99.90
4647;DHT22;2336;47.822;7.564;2023-05-10T14:03:34;18.00;99.90
4647;DHT22;2336;47.822;7.564;2023-05-10T14:06:01;18.00;99.90
4647;DHT22;2336;47.822;7.564;2023-05-10T14:08:28;17.90;99.90
4647;DHT22;2336;47.822;7.564;2023-05-10T14:10:56;17.90;99.90
4647;DHT22;2336;47.822;7.564;2023-05-10T14:13:23;17.90;99.90
4647;DHT22;2336;47.822;7.564;2023-05-10T14:15:50;17.70;99.90
4647;DHT22;2336;47.822;7.564;2023-05-10T14:18:16;17.60;99.90
4647;DHT22;2336;47.822;7.564;2023-05-10T14:20:43;17.70;99.90
4647;DHT22;2336;47.822;7.564;2023-05-10T14:23:10;17.80;99.90
4647;DHT22;2336;47.822;7.564;2023-05-10T14:25:38;17.90;99.90
4647;DHT22;2336;47.822;7.564;2023-05-10T14:28:06;17.80;99.90
4647;DHT22;2336;47.822;7.564;2023-05-10T14:30:33;17.70;99.90
4647;DHT22;2336;47.822;7.564;2023-05-10T14:33:01;17.40;99.90
4647;DHT22;2336;47.822;7.564;2023-05-10T14:35:28;17.40;99.90
4647;DHT22;2336;47.822;7.564;2023-05-10T14:37:56;17.40;99.90
4647;DHT22;2336;47.822;7.564;2023-05-10T14:40:23;17.40;99.90
4647;DHT22;2336;47.822;7.564;2023-05-10T14:42:50;17.00;99.90
4647;DHT22;2336;47.822;7.564;2023-05-10T14:45:20;17.30;99.90
4647;DHT22;2336;47.822;7.564;2023-05-10T14:47:46;17.60;99.90
4647;DHT22;2336;47.822;7.564;2023-05-10T14:50:13;17.80;99.90
4647;DHT22;2336;47.822;7.564;2023-05-10T14:52:40;18.00;99.90
4647;DHT22;2336;47.822;7.564;2023-05-10T14:55:08;18.30;99.90
4647;DHT22;2336;47.822;7.564;2023-05-10T14:57:35;18.40;99.90
4647;DHT22;2336;47.822;7.564;2023-05-10T15:00:03;18.50;99.90
4647;DHT22;2336;47.822;7.564;2023-05-10T15:02:33;18.20;99.90
4647;DHT22;2336;47.822;7.564;2023-05-10T15:05:00;18.00;99.90
4647;DHT22;2336;47.822;7.564;2023-05-10T15:07:28;17.80;99.90
4647;DHT22;2336;47.822;7.564;2023-05-10T15:09:56;17.80;99.90
4647;DHT22;2336;47.822;7.564;2023-05-10T15:12:23;17.60;99.90
4647;DHT22;2336;47.822;7.564;2023-05-10T15:14:50;17.50;99.90
4647;DHT22;2336;47.822;7.564;2023-05-10T15:17:16;17.50;99.90
4647;DHT22;2336;47.822;7.564;2023-05-10T15:19:44;17.60;99.90
4647;DHT22;2336;47.822;7.564;2023-05-10T15:22:11;17.60;99.90
4647;DHT22;2336;47.822;7.564;2023-05-10T15:24:38;17.70;99.90
4647;DHT22;2336;47.822;7.564;2023-05-10T15:27:05;17.80;99.90
4647;DHT22;2336;47.822;7.564;2023-05-10T15:29:31;17.90;99.90
4647;DHT22;2336;47.822;7.564;2023-05-10T15:31:59;17.90;99.90
4647;DHT22;2336;47.822;7.564;2023-05-10T15:34:27;17.80;99.90
4647;DHT22;2336;47.822;7.564;2023-05-10T15:36:55;17.70;99.90
4647;DHT22;2336;47.822;7.564;2023-05-10T15:39:22;17.50;99.90
4647;DHT22;2336;47.822;7.564;2023-05-10T15:41:49;17.40;99.90
4647;DHT22;2336;47.822;7.564;2023-05-10T15:44:16;17.20;99.90
4647;DHT22;2336;47.822;7.564;2023-05-10T15:46:43;17.20;99.90
4647;DHT22;2336;47.822;7.564;2023-05-10T15:49:10;17.20;99.90
4647;DHT22;2336;47.822;7.564;2023-05-10T15:51:37;17.30;99.90
4647;DHT22;2336;47.822;7.564;2023-05-10T15:54:05;17.30;99.90
4647;DHT22;2336;47.822;7.564;2023-05-10T15:56:32;17.30;99.90
4647;DHT22;2336;47.822;7.564;2023-05-10T15:58:59;17.20;99.90
4647;DHT22;2336;47.822;7.564;2023-05-10T16:01:26;16.70;99.90
4647;DHT22;2336;47.822;7.564;2023-05-10T16:03:53;16.40;99.90
4647;DHT22;2336;47.822;7.564;2023-05-10T16:06:19;16.30;99.90
4647;DHT22;2336;47.822;7.564;2023-05-10T16:08:46;16.30;99.90